Dades meteomassalio
Diari Summary for Juliol 16, 2017 Units:  Metric    English   Both
« Previous Day
Next Day »
Diari Semanal Mensual Anual Personalitzat
  Maxima: Minima: Mijana:
Temperatura: 35.3 °C 17.4 °C 26.9 °C
Rosada: 18.2 °C 12.4 °C 15.4 °C
Humitat: 73 % 32 % 52 %
Velocitat del vent: 29.6 km/h 0.0 km/h 6.9 km/h
Racha vent: 29.6 km/h - -
Vent:- - ESE
Pressio: 1019.9 hPa 1014.8 hPa -
Pluja: 0.0 mm    
Historical Graphs
 
 
Tabular Data for Juliol 16, 2017
Time Temperature Dew Point Pressure Wind Wind Speed Wind Gust Humidity Rainfall Rate (Hourly) solar Conditions
00:02 24.2 °C 15.9 °C 1017.5 hPa Calm     60 % 0.0 mm 0.0 W/m2 CLR
00:07 24.1 °C 15.8 °C 1017.5 hPa Calm     60 % 0.0 mm 0.0 W/m2 CLR
00:12 24.0 °C 16.0 °C 1017.5 hPa Calm     61 % 0.0 mm 0.0 W/m2 CLR
00:17 23.9 °C 16.2 °C 1017.5 hPa Calm     62 % 0.0 mm 0.0 W/m2 CLR
00:22 23.8 °C 16.1 °C 1017.5 hPa Calm     62 % 0.0 mm 0.0 W/m2 CLR
00:27 23.7 °C 15.9 °C 1017.5 hPa Calm     62 % 0.0 mm 0.0 W/m2 CLR
00:32 23.6 °C 16.1 °C 1017.8 hPa Calm     63 % 0.0 mm 0.0 W/m2 CLR
00:37 23.4 °C 15.9 °C 1017.8 hPa Calm     63 % 0.0 mm 0.0 W/m2 CLR
00:42 23.3 °C 16.1 °C 1017.8 hPa Calm     64 % 0.0 mm 0.0 W/m2 CLR
00:47 23.3 °C 16.1 °C 1017.8 hPa Calm     64 % 0.0 mm 0.0 W/m2 CLR
00:52 23.3 °C 16.1 °C 1017.8 hPa Calm     64 % 0.0 mm 0.0 W/m2 CLR
00:57 23.2 °C 16.3 °C 1017.8 hPa Calm     65 % 0.0 mm 0.0 W/m2 CLR
01:02 23.2 °C 16.1 °C 1017.8 hPa Calm     64 % 0.0 mm 0.0 W/m2 CLR
01:07 23.2 °C 16.2 °C 1017.8 hPa Calm     65 % 0.0 mm 0.0 W/m2 CLR
01:12 23.1 °C 16.2 °C 1017.8 hPa Calm     65 % 0.0 mm 0.0 W/m2 CLR
01:17 23.0 °C 16.3 °C 1018.2 hPa Calm     66 % 0.0 mm 0.0 W/m2 CLR
01:22 22.9 °C 16.2 °C 1018.2 hPa Calm     66 % 0.0 mm 0.0 W/m2 CLR
01:27 22.8 °C 16.2 °C 1018.2 hPa Calm     66 % 0.0 mm 0.0 W/m2 CLR
01:32 22.8 °C 16.1 °C 1018.2 hPa Calm     66 % 0.0 mm 0.0 W/m2 CLR
01:37 22.7 °C 16.0 °C 1018.2 hPa Calm     66 % 0.0 mm 0.0 W/m2 CLR
01:42 22.6 °C 15.9 °C 1018.2 hPa Calm     66 % 0.0 mm 0.0 W/m2 CLR
01:47 22.6 °C 15.9 °C 1018.2 hPa Calm     66 % 0.0 mm 0.0 W/m2 CLR
01:52 22.4 °C 15.8 °C 1018.2 hPa Calm     66 % 0.0 mm 0.0 W/m2 CLR
01:57 22.3 °C 15.7 °C 1018.2 hPa Calm     66 % 0.0 mm 0.0 W/m2 CLR
02:02 22.2 °C 15.6 °C 1018.2 hPa Calm     66 % 0.0 mm 0.0 W/m2 CLR
02:07 22.2 °C 15.3 °C 1018.2 hPa Calm     65 % 0.0 mm 0.0 W/m2 CLR
02:12 22.2 °C 15.3 °C 1018.2 hPa Calm     65 % 0.0 mm 0.0 W/m2 CLR
02:17 22.3 °C 15.4 °C 1018.2 hPa Calm     65 % 0.0 mm 0.0 W/m2 CLR
02:22 22.2 °C 15.3 °C 1018.5 hPa Calm     65 % 0.0 mm 0.0 W/m2 CLR
02:27 21.9 °C 15.3 °C 1018.5 hPa Calm     66 % 0.0 mm 0.0 W/m2 CLR
02:32 21.7 °C 15.6 °C 1018.5 hPa Calm     68 % 0.0 mm 0.0 W/m2 CLR
02:37 21.6 °C 15.2 °C 1018.5 hPa Calm     67 % 0.0 mm 0.0 W/m2 CLR
02:42 21.6 °C 14.7 °C 1018.5 hPa Calm     65 % 0.0 mm 0.0 W/m2 CLR
02:47 21.6 °C 15.0 °C 1018.5 hPa Calm     66 % 0.0 mm 0.0 W/m2 CLR
02:52 21.6 °C 15.2 °C 1018.5 hPa Calm     67 % 0.0 mm 0.0 W/m2 CLR
02:57 21.4 °C 15.0 °C 1018.5 hPa Calm     67 % 0.0 mm 0.0 W/m2 CLR
03:02 21.3 °C 15.1 °C 1018.5 hPa Calm     68 % 0.0 mm 0.0 W/m2 CLR
03:07 21.1 °C 14.7 °C 1018.5 hPa Calm     67 % 0.0 mm 0.0 W/m2 CLR
03:12 21.1 °C 14.9 °C 1018.5 hPa Calm     68 % 0.0 mm 0.0 W/m2 CLR
03:17 20.9 °C 14.1 °C 1018.5 hPa Calm     65 % 0.0 mm 0.0 W/m2 CLR
03:22 20.9 °C 14.6 °C 1018.5 hPa Calm     67 % 0.0 mm 0.0 W/m2 CLR
03:27 20.8 °C 14.0 °C 1018.8 hPa Calm     65 % 0.0 mm 0.0 W/m2 CLR
03:32 20.8 °C 14.2 °C 1018.8 hPa Calm     66 % 0.0 mm 0.0 W/m2 CLR
03:37 20.6 °C 14.1 °C 1018.8 hPa Calm     66 % 0.0 mm 0.0 W/m2 CLR
03:42 20.5 °C 13.9 °C 1018.8 hPa Calm     66 % 0.0 mm 0.0 W/m2 CLR
03:47 20.4 °C 14.1 °C 1018.8 hPa Calm     67 % 0.0 mm 0.0 W/m2 CLR
03:52 20.3 °C 13.7 °C 1018.8 hPa Calm     66 % 0.0 mm 0.0 W/m2 CLR
03:57 20.2 °C 13.9 °C 1018.8 hPa Calm     67 % 0.0 mm 0.0 W/m2 CLR
04:02 20.1 °C 13.7 °C 1018.8 hPa Calm     67 % 0.0 mm 0.0 W/m2 CLR
04:07 19.9 °C 13.6 °C 1018.8 hPa Calm     67 % 0.0 mm 0.0 W/m2 CLR
04:12 19.8 °C 13.7 °C 1018.5 hPa Calm     68 % 0.0 mm 0.0 W/m2 CLR
04:17 19.7 °C 13.4 °C 1018.5 hPa Calm     67 % 0.0 mm 0.0 W/m2 CLR
04:22 19.7 °C 13.6 °C 1018.5 hPa Calm     68 % 0.0 mm 0.0 W/m2 CLR
04:27 19.6 °C 13.8 °C 1018.5 hPa Calm     69 % 0.0 mm 0.0 W/m2 CLR
04:32 19.5 °C 13.7 °C 1018.5 hPa Calm     69 % 0.0 mm 0.0 W/m2 CLR
04:37 19.4 °C 13.3 °C 1018.5 hPa Calm     68 % 0.0 mm 0.0 W/m2 CLR
04:42 19.2 °C 13.2 °C 1018.5 hPa Calm     68 % 0.0 mm 0.0 W/m2 CLR
04:47 19.1 °C 13.3 °C 1018.5 hPa Calm     69 % 0.0 mm 0.0 W/m2 CLR
04:52 19.1 °C 13.2 °C 1018.5 hPa Calm     69 % 0.0 mm 0.0 W/m2 CLR
04:57 19.1 °C 13.0 °C 1018.5 hPa Calm     68 % 0.0 mm 0.0 W/m2 CLR
05:02 19.0 °C 12.9 °C 1018.5 hPa Calm     68 % 0.0 mm 0.0 W/m2 CLR
05:07 19.0 °C 12.9 °C 1018.5 hPa Calm     68 % 0.0 mm 0.0 W/m2 CLR
05:12 18.9 °C 12.9 °C 1018.5 hPa Calm     68 % 0.0 mm 0.0 W/m2 CLR
05:17 18.9 °C 12.8 °C 1018.5 hPa Calm     68 % 0.0 mm 0.0 W/m2 CLR
05:22 18.8 °C 13.0 °C 1018.5 hPa Calm     69 % 0.0 mm 0.0 W/m2 CLR
05:27 18.8 °C 13.0 °C 1018.5 hPa Calm     69 % 0.0 mm 0.0 W/m2 CLR
05:32 18.8 °C 13.2 °C 1018.5 hPa Calm     70 % 0.0 mm 0.0 W/m2 CLR
05:37 18.6 °C 13.1 °C 1018.5 hPa Calm     70 % 0.0 mm 0.0 W/m2 CLR
05:42 18.4 °C 12.7 °C 1018.5 hPa Calm     69 % 0.0 mm 0.0 W/m2 CLR
05:48 18.4 °C 12.6 °C 1018.5 hPa Calm     69 % 0.0 mm 0.0 W/m2 CLR
05:53 18.4 °C 12.8 °C 1018.5 hPa Calm     70 % 0.0 mm 0.0 W/m2 CLR
05:58 18.3 °C 12.7 °C 1018.8 hPa Calm     70 % 0.0 mm 0.0 W/m2 CLR
06:03 18.2 °C 12.9 °C 1018.8 hPa Calm     71 % 0.0 mm 0.0 W/m2 CLR
06:08 18.1 °C 12.8 °C 1018.8 hPa Calm     71 % 0.0 mm 0.0 W/m2 CLR
06:13 18.1 °C 12.9 °C 1018.8 hPa Calm     72 % 0.0 mm 0.0 W/m2 CLR
06:18 18.0 °C 12.9 °C 1018.8 hPa Calm     72 % 0.0 mm 0.0 W/m2 CLR
06:23 17.8 °C 12.9 °C 1018.8 hPa Calm     73 % 0.0 mm 0.0 W/m2 CLR
06:28 17.7 °C 12.8 °C 1018.8 hPa Calm     73 % 0.0 mm 0.0 W/m2 CLR
06:33 17.6 °C 12.7 °C 1018.8 hPa Calm     73 % 0.0 mm 0.0 W/m2 OVC
06:38 17.6 °C 12.7 °C 1018.8 hPa Calm     73 % 0.0 mm 0.0 W/m2 OVC
06:43 17.5 °C 12.4 °C 1018.8 hPa Calm     72 % 0.0 mm 5.0 W/m2 OVC
06:48 17.4 °C 12.6 °C 1018.8 hPa Calm     73 % 0.0 mm 7.0 W/m2 BKN
06:53 17.4 °C 12.5 °C 1019.2 hPa Calm     73 % 0.0 mm 9.0 W/m2 BKN
06:58 17.4 °C 12.6 °C 1019.2 hPa Calm     73 % 0.0 mm 12.0 W/m2 BKN
07:03 17.4 °C 12.6 °C 1019.2 hPa Calm     73 % 0.0 mm 14.0 W/m2 BKN
07:08 17.4 °C 12.5 °C 1019.2 hPa Calm     73 % 0.0 mm 18.0 W/m2 BKN
07:13 17.4 °C 12.5 °C 1019.2 hPa Calm     73 % 0.0 mm 21.0 W/m2 BKN
07:18 17.4 °C 12.5 °C 1019.5 hPa Calm     73 % 0.0 mm 26.0 W/m2 BKN
07:23 17.5 °C 12.6 °C 1019.5 hPa Calm     73 % 0.0 mm 37.0 W/m2 BKN
07:28 17.7 °C 12.8 °C 1019.5 hPa Calm     73 % 0.0 mm 46.0 W/m2 BKN
07:33 17.8 °C 12.9 °C 1019.5 hPa Calm     73 % 0.0 mm 56.0 W/m2 SCT
07:38 18.0 °C 12.9 °C 1019.5 hPa Calm     72 % 0.0 mm 67.0 W/m2 SCT
07:43 18.1 °C 12.8 °C 1019.5 hPa Calm     71 % 0.0 mm 83.0 W/m2 FEW
07:48 18.3 °C 12.9 °C 1019.5 hPa Calm     71 % 0.0 mm 97.0 W/m2 FEW
07:53 18.4 °C 12.8 °C 1019.5 hPa Calm     70 % 0.0 mm 111.0 W/m2 CLR
07:58 18.7 °C 13.1 °C 1019.5 hPa Calm     70 % 0.0 mm 127.0 W/m2 CLR
08:03 19.0 °C 13.2 °C 1019.5 hPa Calm     69 % 0.0 mm 146.0 W/m2 CLR
08:08 19.3 °C 13.3 °C 1019.9 hPa Calm     68 % 0.0 mm 163.0 W/m2 CLR
08:13 19.7 °C 13.4 °C 1019.9 hPa Calm     67 % 0.0 mm 179.0 W/m2 CLR
08:18 20.1 °C 13.5 °C 1019.9 hPa Calm     66 % 0.0 mm 197.0 W/m2 CLR
08:23 20.4 °C 13.8 °C 1019.9 hPa Calm     66 % 0.0 mm 216.0 W/m2 CLR
08:28 20.7 °C 13.8 °C 1019.9 hPa Calm     65 % 0.0 mm 230.0 W/m2 CLR
08:33 21.0 °C 14.2 °C 1019.9 hPa Calm     65 % 0.0 mm 244.0 W/m2 CLR
08:38 21.4 °C 14.3 °C 1019.9 hPa Calm     64 % 0.0 mm 258.0 W/m2 CLR
08:43 21.8 °C 14.7 °C 1019.5 hPa Calm     64 % 0.0 mm 276.0 W/m2 CLR
08:48 22.1 °C 14.7 °C 1019.9 hPa Calm     63 % 0.0 mm 290.0 W/m2 CLR
08:53 22.4 °C 15.0 °C 1019.9 hPa Calm     63 % 0.0 mm 306.0 W/m2 CLR
08:58 22.8 °C 15.1 °C 1019.9 hPa Calm     62 % 0.0 mm 320.0 W/m2 CLR
09:03 23.3 °C 15.1 °C 1019.9 hPa Calm     60 % 0.0 mm 334.0 W/m2 CLR
09:08 23.6 °C 15.1 °C 1019.9 hPa Calm     59 % 0.0 mm 353.0 W/m2 CLR
09:13 23.8 °C 15.1 °C 1019.9 hPa Calm     58 % 0.0 mm 369.0 W/m2 CLR
09:18 24.2 °C 14.9 °C 1019.9 hPa Calm     56 % 0.0 mm 385.0 W/m2 CLR
09:23 24.3 °C 14.7 °C 1019.9 hPa Calm     55 % 0.0 mm 399.0 W/m2 CLR
09:28 24.3 °C 15.0 °C 1019.9 hPa Calm     56 % 0.0 mm 417.0 W/m2 CLR
09:33 24.6 °C 15.2 °C 1019.9 hPa Calm     56 % 0.0 mm 432.0 W/m2 CLR
09:38 24.8 °C 15.2 °C 1019.9 hPa Calm     55 % 0.0 mm 446.0 W/m2 CLR
09:43 25.0 °C 15.3 °C 1019.9 hPa Calm     55 % 0.0 mm 464.0 W/m2 CLR
09:48 25.4 °C 15.4 °C 1019.5 hPa Calm     54 % 0.0 mm 478.0 W/m2 CLR
09:53 25.7 °C 15.1 °C 1019.5 hPa Calm     52 % 0.0 mm 496.0 W/m2 CLR
09:58 25.7 °C 15.1 °C 1019.5 hPa Calm     52 % 0.0 mm 508.0 W/m2 CLR
10:03 25.9 °C 15.0 °C 1019.5 hPa Calm     51 % 0.0 mm 524.0 W/m2 CLR
10:08 26.1 °C 15.2 °C 1019.5 hPa Calm     51 % 0.0 mm 538.0 W/m2 CLR
10:09 26.2 °C 15.2 °C 1019.5 hPa Calm     51 % 0.0 mm 545.0 W/m2 CLR
10:14 26.3 °C 15.0 °C 1019.5 hPa ENE 5.6 km/h 5.6 km/h 50 % 0.0 mm 559.0 W/m2 CLR
10:19 26.4 °C 15.1 °C 1019.5 hPa NE 5.6 km/h 5.6 km/h 50 % 0.0 mm 573.0 W/m2 CLR
10:24 26.4 °C 15.5 °C 1019.5 hPa Calm     51 % 0.0 mm 584.0 W/m2 CLR
10:29 26.5 °C 15.2 °C 1019.5 hPa SSE 7.4 km/h 7.4 km/h 50 % 0.0 mm 601.0 W/m2 CLR
10:34 26.3 °C 15.0 °C 1019.5 hPa East 11.1 km/h 11.1 km/h 50 % 0.0 mm 613.0 W/m2 CLR
10:39 26.3 °C 15.3 °C 1019.5 hPa NE 9.3 km/h 9.3 km/h 51 % 0.0 mm 626.0 W/m2 CLR
10:44 26.6 °C 15.3 °C 1019.5 hPa ENE 5.6 km/h   50 % 0.0 mm 640.0 W/m2 CLR
10:49 26.7 °C 15.4 °C 1019.5 hPa NE 5.6 km/h 5.6 km/h 50 % 0.0 mm 652.0 W/m2 CLR
10:54 26.7 °C 15.4 °C 1019.2 hPa East 9.7 km/h 9.7 km/h 50 % 0.0 mm 666.0 W/m2 CLR
10:56 26.7 °C 15.4 °C 1019.2 hPa East 7.4 km/h 7.4 km/h 50 % 0.0 mm 670.0 W/m2 CLR
11:01 26.6 °C 15.3 °C 1019.2 hPa East 9.3 km/h 9.3 km/h 50 % 0.0 mm 684.0 W/m2 CLR
11:06 26.8 °C 15.5 °C 1019.2 hPa ESE 1.9 km/h 1.9 km/h 50 % 0.0 mm 696.0 W/m2 CLR
11:11 27.2 °C 15.6 °C 1019.2 hPa ENE 7.4 km/h 7.4 km/h 49 % 0.0 mm 707.0 W/m2 CLR
11:16 27.4 °C 15.7 °C 1019.2 hPa ENE 1.6 km/h 1.6 km/h 49 % 0.0 mm 717.0 W/m2 CLR
11:21 27.5 °C 15.5 °C 1019.2 hPa East 1.9 km/h 1.9 km/h 48 % 0.0 mm 729.0 W/m2 CLR
11:26 27.6 °C 15.2 °C 1019.2 hPa ENE 9.3 km/h 9.3 km/h 47 % 0.0 mm 742.0 W/m2 CLR
11:31 27.9 °C 15.6 °C 1019.2 hPa ESE 3.7 km/h   47 % 0.0 mm 754.0 W/m2 CLR
11:36 28.0 °C 15.3 °C 1019.2 hPa Calm     46 % 0.0 mm 763.0 W/m2 CLR
11:41 28.4 °C 15.3 °C 1018.8 hPa NE 5.6 km/h   45 % 0.0 mm 773.0 W/m2 CLR
11:46 28.6 °C 15.2 °C 1018.8 hPa Calm   0.2 km/h 44 % 0.0 mm 786.0 W/m2 CLR
11:51 28.6 °C 15.4 °C 1018.8 hPa North 3.2 km/h 3.2 km/h 45 % 0.0 mm 793.0 W/m2 CLR
11:56 28.8 °C 15.7 °C 1018.8 hPa ENE 5.6 km/h 5.6 km/h 45 % 0.0 mm 802.0 W/m2 CLR
12:01 28.8 °C 15.7 °C 1018.8 hPa ENE 5.6 km/h 5.6 km/h 45 % 0.0 mm 810.0 W/m2 CLR
12:06 29.2 °C 15.7 °C 1018.8 hPa NE 3.7 km/h 3.7 km/h 44 % 0.0 mm 819.0 W/m2 CLR
12:11 29.4 °C 15.9 °C 1018.8 hPa ENE 8.0 km/h 8.0 km/h 44 % 0.0 mm 831.0 W/m2 CLR
12:16 29.5 °C 15.9 °C 1018.5 hPa ENE 13.0 km/h 13.0 km/h 44 % 0.0 mm 837.0 W/m2 CLR
12:21 29.8 °C 15.8 °C 1018.5 hPa North 7.4 km/h 7.4 km/h 43 % 0.0 mm 847.0 W/m2 CLR
12:26 29.9 °C 15.9 °C 1018.5 hPa ENE 5.6 km/h 5.6 km/h 43 % 0.0 mm 853.0 W/m2 CLR
12:31 29.9 °C 16.0 °C 1018.5 hPa North 7.4 km/h 7.4 km/h 43 % 0.0 mm 861.0 W/m2 CLR
12:36 30.1 °C 16.2 °C 1018.5 hPa NNW 9.3 km/h 9.3 km/h 43 % 0.0 mm 868.0 W/m2 CLR
12:41 30.1 °C 16.2 °C 1018.5 hPa North 7.4 km/h 7.4 km/h 43 % 0.0 mm 870.0 W/m2 CLR
12:46 30.4 °C 16.1 °C 1018.2 hPa NE 5.6 km/h 5.6 km/h 42 % 0.0 mm 879.0 W/m2 CLR
12:51 30.7 °C 15.9 °C 1018.2 hPa East 14.8 km/h 14.8 km/h 41 % 0.0 mm 882.0 W/m2 CLR
12:56 30.8 °C 16.1 °C 1018.2 hPa Calm     41 % 0.0 mm 893.0 W/m2 CLR
13:01 30.9 °C 16.6 °C 1018.2 hPa ENE 9.7 km/h 9.7 km/h 42 % 0.0 mm 895.0 W/m2 CLR
13:06 31.3 °C 16.1 °C 1018.2 hPa NNW 13.0 km/h 13.0 km/h 40 % 0.0 mm 900.0 W/m2 CLR
13:11 31.3 °C 16.1 °C 1017.8 hPa NNE 9.3 km/h 9.3 km/h 40 % 0.0 mm 905.0 W/m2 CLR
13:16 31.6 °C 16.4 °C 1017.8 hPa NE 9.3 km/h 9.3 km/h 40 % 0.0 mm 911.0 W/m2 CLR
13:21 31.6 °C 16.4 °C 1017.8 hPa NE 3.7 km/h 3.7 km/h 40 % 0.0 mm 914.0 W/m2 CLR
13:26 31.8 °C 16.1 °C 1017.8 hPa NNE 9.7 km/h 9.7 km/h 39 % 0.0 mm 918.0 W/m2 CLR
13:31 31.8 °C 16.2 °C 1017.5 hPa ENE 9.3 km/h 9.3 km/h 39 % 0.0 mm 918.0 W/m2 CLR
13:36 31.9 °C 16.3 °C 1017.5 hPa Calm     39 % 0.0 mm 926.0 W/m2 CLR
13:41 32.3 °C 16.6 °C 1017.5 hPa NE 6.4 km/h 6.4 km/h 39 % 0.0 mm 921.0 W/m2 CLR
13:46 32.7 °C 16.9 °C 1017.5 hPa NE 13.0 km/h 13.0 km/h 39 % 0.0 mm 923.0 W/m2 CLR
13:51 32.9 °C 16.7 °C 1017.2 hPa NNE 1.6 km/h   38 % 0.0 mm 930.0 W/m2 CLR
13:56 33.0 °C 16.8 °C 1017.2 hPa NE 6.4 km/h 6.4 km/h 38 % 0.0 mm 928.0 W/m2 CLR
14:01 33.2 °C 16.6 °C 1017.2 hPa ENE 1.9 km/h 1.9 km/h 37 % 0.0 mm 926.0 W/m2 CLR
14:06 33.6 °C 16.9 °C 1016.8 hPa ENE 5.6 km/h 5.6 km/h 37 % 0.0 mm 930.0 W/m2 CLR
14:11 33.8 °C 16.6 °C 1016.8 hPa ENE 7.4 km/h   36 % 0.0 mm 930.0 W/m2 CLR
14:16 33.9 °C 17.2 °C 1016.8 hPa ENE 14.8 km/h 14.8 km/h 37 % 0.0 mm 923.0 W/m2 CLR
14:17 33.9 °C 17.2 °C 1016.8 hPa ENE 14.8 km/h 14.8 km/h 37 % 0.0 mm 923.0 W/m2 CLR
14:22 33.9 °C 17.2 °C 1016.8 hPa ENE 14.8 km/h 14.8 km/h 37 % 0.0 mm 923.0 W/m2 CLR
14:27 33.8 °C 16.7 °C 1016.8 hPa ENE 11.1 km/h   36 % 0.0 mm 923.0 W/m2 CLR
14:32 34.1 °C 16.4 °C 1016.8 hPa East 7.4 km/h 7.4 km/h 35 % 0.0 mm 923.0 W/m2 CLR
14:37 33.9 °C 16.8 °C 1016.5 hPa ENE 14.8 km/h 14.8 km/h 36 % 0.0 mm 912.0 W/m2 CLR
14:42 34.1 °C 16.9 °C 1016.5 hPa East 1.9 km/h   36 % 0.0 mm 912.0 W/m2 CLR
14:47 34.2 °C 17.4 °C 1016.5 hPa East 18.5 km/h 18.5 km/h 37 % 0.0 mm 914.0 W/m2 CLR
14:52 34.1 °C 17.3 °C 1016.5 hPa NNE 11.1 km/h 11.1 km/h 37 % 0.0 mm 900.0 W/m2 CLR
14:57 34.2 °C 17.4 °C 1016.5 hPa ENE 5.6 km/h   37 % 0.0 mm 902.0 W/m2 CLR
15:02 34.3 °C 17.5 °C 1016.5 hPa Calm     37 % 0.0 mm 895.0 W/m2 CLR
15:07 34.6 °C 18.2 °C 1016.5 hPa ENE 16.7 km/h 16.7 km/h 38 % 0.0 mm 895.0 W/m2 CLR
15:12 34.4 °C 17.2 °C 1016.5 hPa NE 17.7 km/h 17.7 km/h 36 % 0.0 mm 889.0 W/m2 CLR
15:17 34.4 °C 17.7 °C 1016.1 hPa East 16.7 km/h 16.7 km/h 37 % 0.0 mm 879.0 W/m2 CLR
15:22 34.3 °C 17.9 °C 1016.1 hPa ESE 22.2 km/h 22.2 km/h 38 % 0.0 mm 872.0 W/m2 CLR
15:27 34.3 °C 17.6 °C 1016.1 hPa ENE 18.5 km/h 18.5 km/h 37 % 0.0 mm 872.0 W/m2 CLR
15:32 34.6 °C 17.3 °C 1016.1 hPa ENE 18.5 km/h 18.5 km/h 36 % 0.0 mm 865.0 W/m2 CLR
15:37 34.5 °C 17.7 °C 1016.1 hPa ENE 18.5 km/h 18.5 km/h 37 % 0.0 mm 861.0 W/m2 CLR
15:42 34.7 °C 17.4 °C 1016.1 hPa SE 18.5 km/h 18.5 km/h 36 % 0.0 mm 856.0 W/m2 CLR
15:47 34.5 °C 17.7 °C 1015.8 hPa ENE 22.2 km/h 22.2 km/h 37 % 0.0 mm 844.0 W/m2 CLR
15:52 34.7 °C 17.8 °C 1015.8 hPa ENE 16.7 km/h 16.7 km/h 37 % 0.0 mm 835.0 W/m2 CLR
15:57 34.9 °C 17.6 °C 1015.8 hPa ESE 13.0 km/h 13.0 km/h 36 % 0.0 mm 830.0 W/m2 CLR
16:02 34.7 °C 17.8 °C 1015.8 hPa ESE 14.8 km/h 14.8 km/h 37 % 0.0 mm 823.0 W/m2 CLR
16:07 34.7 °C 17.4 °C 1015.8 hPa ENE 18.5 km/h 18.5 km/h 36 % 0.0 mm 810.0 W/m2 CLR
16:12 34.8 °C 17.6 °C 1015.8 hPa ENE 16.7 km/h 16.7 km/h 36 % 0.0 mm 803.0 W/m2 CLR
16:17 35.1 °C 17.7 °C 1015.5 hPa NNE 18.5 km/h 18.5 km/h 36 % 0.0 mm 789.0 W/m2 CLR
16:22 35.2 °C 17.9 °C 1015.5 hPa East 18.5 km/h 18.5 km/h 36 % 0.0 mm 784.0 W/m2 CLR
16:27 34.8 °C 17.6 °C 1015.5 hPa NNE 13.0 km/h 13.0 km/h 36 % 0.0 mm 759.0 W/m2 CLR
16:32 35.0 °C 18.1 °C 1015.5 hPa ESE 5.6 km/h 5.6 km/h 37 % 0.0 mm 756.0 W/m2 CLR
16:37 35.2 °C 17.4 °C 1015.5 hPa SE 22.2 km/h 22.2 km/h 35 % 0.0 mm 744.0 W/m2 CLR
16:42 35.3 °C 17.9 °C 1015.5 hPa East 24.1 km/h 24.1 km/h 36 % 0.0 mm 733.0 W/m2 CLR
16:47 35.0 °C 17.7 °C 1015.5 hPa ESE 18.5 km/h 18.5 km/h 36 % 0.0 mm 710.0 W/m2 CLR
16:52 34.9 °C 17.6 °C 1015.5 hPa ENE 24.1 km/h 24.1 km/h 36 % 0.0 mm 708.0 W/m2 CLR
16:57 34.8 °C 17.5 °C 1015.1 hPa East 11.3 km/h 11.3 km/h 36 % 0.0 mm 707.0 W/m2 CLR
17:02 34.8 °C 17.6 °C 1015.5 hPa ESE 7.4 km/h 7.4 km/h 36 % 0.0 mm 693.0 W/m2 CLR
17:07 34.8 °C 18.0 °C 1015.1 hPa SE 24.1 km/h 24.1 km/h 37 % 0.0 mm 673.0 W/m2 CLR
17:12 34.8 °C 18.0 °C 1015.5 hPa SSE 22.2 km/h 22.2 km/h 37 % 0.0 mm 664.0 W/m2 CLR
17:17 34.7 °C 17.4 °C 1015.1 hPa ESE 18.5 km/h 18.5 km/h 36 % 0.0 mm 657.0 W/m2 CLR
17:22 34.6 °C 17.3 °C 1015.1 hPa ESE 24.1 km/h 24.1 km/h 36 % 0.0 mm 647.0 W/m2 CLR
17:27 34.4 °C 17.2 °C 1015.1 hPa SE 27.8 km/h 27.8 km/h 36 % 0.0 mm 635.0 W/m2 CLR
17:32 34.3 °C 17.5 °C 1015.1 hPa SE 18.5 km/h 18.5 km/h 37 % 0.0 mm 621.0 W/m2 CLR
17:37 34.3 °C 17.6 °C 1015.1 hPa SSE 13.0 km/h 13.0 km/h 37 % 0.0 mm 606.0 W/m2 CLR
17:42 34.4 °C 17.2 °C 1015.1 hPa ESE 16.7 km/h 16.7 km/h 36 % 0.0 mm 596.0 W/m2 CLR
17:47 34.2 °C 16.9 °C 1015.1 hPa SE 22.2 km/h 22.2 km/h 36 % 0.0 mm 587.0 W/m2 CLR
17:52 34.0 °C 16.8 °C 1015.1 hPa SE 22.2 km/h 22.2 km/h 36 % 0.0 mm 570.0 W/m2 CLR
17:57 34.1 °C 16.5 °C 1015.1 hPa ESE 22.2 km/h 22.2 km/h 35 % 0.0 mm 555.0 W/m2 CLR
18:02 34.0 °C 16.8 °C 1015.1 hPa East 24.1 km/h 24.1 km/h 36 % 0.0 mm 545.0 W/m2 CLR
18:07 34.0 °C 16.4 °C 1015.1 hPa SE 25.7 km/h 25.7 km/h 35 % 0.0 mm 534.0 W/m2 CLR
18:12 33.7 °C 16.1 °C 1015.1 hPa SE 29.6 km/h 29.6 km/h 35 % 0.0 mm 526.0 W/m2 CLR
18:17 33.6 °C 16.5 °C 1014.8 hPa SE 29.6 km/h 29.6 km/h 36 % 0.0 mm 513.0 W/m2 CLR
18:22 33.6 °C 16.1 °C 1014.8 hPa SE 24.1 km/h 24.1 km/h 35 % 0.0 mm 504.0 W/m2 CLR
18:27 33.7 °C 16.1 °C 1014.8 hPa SE 20.4 km/h 20.4 km/h 35 % 0.0 mm 392.0 W/m2 CLR
18:32 33.6 °C 16.1 °C 1014.8 hPa SSE 27.8 km/h 27.8 km/h 35 % 0.0 mm 295.0 W/m2 CLR
18:37 33.4 °C 15.9 °C 1014.8 hPa ESE 24.1 km/h 24.1 km/h 35 % 0.0 mm 308.0 W/m2 CLR
18:42 33.3 °C 15.8 °C 1014.8 hPa ESE 25.9 km/h 25.9 km/h 35 % 0.0 mm 352.0 W/m2 CLR
18:47 33.4 °C 15.4 °C 1014.8 hPa SE 24.1 km/h 24.1 km/h 34 % 0.0 mm 385.0 W/m2 CLR
18:52 33.3 °C 15.3 °C 1014.8 hPa East 22.2 km/h 22.2 km/h 34 % 0.0 mm 396.0 W/m2 CLR
18:57 33.3 °C 14.9 °C 1014.8 hPa ESE 27.8 km/h 27.8 km/h 33 % 0.0 mm 396.0 W/m2 CLR
19:02 33.3 °C 14.8 °C 1014.8 hPa SE 18.5 km/h 18.5 km/h 33 % 0.0 mm 318.0 W/m2 CLR
19:07 33.3 °C 14.4 °C 1015.1 hPa East 24.1 km/h 24.1 km/h 32 % 0.0 mm 323.0 W/m2 CLR
19:12 33.2 °C 14.8 °C 1014.8 hPa SE 20.4 km/h 20.4 km/h 33 % 0.0 mm 262.0 W/m2 CLR
19:17 33.2 °C 14.3 °C 1014.8 hPa ESE 20.4 km/h 20.4 km/h 32 % 0.0 mm 329.0 W/m2 CLR
19:22 33.2 °C 14.3 °C 1014.8 hPa ESE 20.4 km/h 20.4 km/h 32 % 0.0 mm 301.0 W/m2 CLR
19:28 33.1 °C 14.2 °C 1014.8 hPa SE 20.4 km/h 20.4 km/h 32 % 0.0 mm 227.0 W/m2 CLR
19:33 33.0 °C 14.6 °C 1014.8 hPa SE 18.5 km/h 18.5 km/h 33 % 0.0 mm 206.0 W/m2 CLR
19:38 33.0 °C 14.6 °C 1014.8 hPa SE 16.7 km/h 16.7 km/h 33 % 0.0 mm 174.0 W/m2 CLR
19:43 33.0 °C 14.6 °C 1015.1 hPa SE 20.4 km/h 20.4 km/h 33 % 0.0 mm 195.0 W/m2 CLR
19:48 32.9 °C 14.6 °C 1014.8 hPa SSE 22.2 km/h 22.2 km/h 33 % 0.0 mm 174.0 W/m2 CLR
19:53 32.8 °C 14.4 °C 1015.1 hPa SE 25.9 km/h 25.9 km/h 33 % 0.0 mm 146.0 W/m2 CLR
19:58 32.7 °C 14.3 °C 1015.1 hPa SSE 16.7 km/h 16.7 km/h 33 % 0.0 mm 141.0 W/m2 CLR
20:03 32.6 °C 14.7 °C 1015.1 hPa SSE 20.4 km/h 20.4 km/h 34 % 0.0 mm 111.0 W/m2 CLR
20:08 32.5 °C 14.6 °C 1015.1 hPa SSE 16.7 km/h 16.7 km/h 34 % 0.0 mm 65.0 W/m2 CLR
20:13 32.3 °C 14.4 °C 1015.1 hPa SE 18.5 km/h 18.5 km/h 34 % 0.0 mm 63.0 W/m2 FEW
20:18 32.1 °C 15.2 °C 1015.1 hPa SE 20.4 km/h 20.4 km/h 36 % 0.0 mm 54.0 W/m2 SCT
20:23 31.8 °C 15.3 °C 1015.1 hPa SSE 14.8 km/h 14.8 km/h 37 % 0.0 mm 53.0 W/m2 SCT
20:28 31.7 °C 15.6 °C 1015.1 hPa SE 22.2 km/h 22.2 km/h 38 % 0.0 mm 49.0 W/m2 SCT
20:33 31.5 °C 15.9 °C 1015.1 hPa South 14.8 km/h 14.8 km/h 39 % 0.0 mm 46.0 W/m2 SCT
20:38 31.4 °C 15.8 °C 1015.1 hPa SE 9.7 km/h 9.7 km/h 39 % 0.0 mm 47.0 W/m2 SCT
20:43 31.3 °C 16.1 °C 1015.1 hPa SSE 13.0 km/h 13.2 km/h 40 % 0.0 mm 42.0 W/m2 BKN
20:48 31.1 °C 15.9 °C 1015.1 hPa SSE 8.0 km/h 8.0 km/h 40 % 0.0 mm 35.0 W/m2 BKN
20:53 30.9 °C 15.8 °C 1015.1 hPa SE 9.7 km/h 9.7 km/h 40 % 0.0 mm 35.0 W/m2 BKN
20:58 30.7 °C 15.9 °C 1015.5 hPa SE 13.0 km/h 13.0 km/h 41 % 0.0 mm 28.0 W/m2 BKN
21:03 30.5 °C 15.8 °C 1015.5 hPa SSE 14.8 km/h 14.8 km/h 41 % 0.0 mm 23.0 W/m2 BKN
21:08 30.4 °C 16.1 °C 1015.5 hPa SE 9.7 km/h 9.7 km/h 42 % 0.0 mm 19.0 W/m2 BKN
21:13 30.2 °C 15.9 °C 1015.5 hPa SSE 12.9 km/h 12.9 km/h 42 % 0.0 mm 16.0 W/m2 BKN
21:18 30.0 °C 16.1 °C 1015.5 hPa SE 18.5 km/h 18.5 km/h 43 % 0.0 mm 14.0 W/m2 BKN
21:23 29.8 °C 15.9 °C 1015.5 hPa SSE 9.3 km/h 9.3 km/h 43 % 0.0 mm 9.0 W/m2 BKN
21:28 29.6 °C 16.1 °C 1015.5 hPa SE 13.0 km/h 13.0 km/h 44 % 0.0 mm 5.0 W/m2 OVC
21:33 29.4 °C 16.3 °C 1015.5 hPa SE 11.3 km/h 11.3 km/h 45 % 0.0 mm 0.0 W/m2 OVC
21:38 29.3 °C 16.4 °C 1015.5 hPa SE 5.6 km/h 5.6 km/h 46 % 0.0 mm 0.0 W/m2 OVC
21:43 29.1 °C 16.3 °C 1015.5 hPa SSE 13.0 km/h 13.0 km/h 46 % 0.0 mm 0.0 W/m2 CLR
21:48 28.9 °C 16.5 °C 1015.8 hPa ESE 5.6 km/h 7.1 km/h 47 % 0.0 mm 0.0 W/m2 CLR
21:53 28.8 °C 16.4 °C 1015.8 hPa SE 11.3 km/h 11.3 km/h 47 % 0.0 mm 0.0 W/m2 CLR
21:58 28.7 °C 16.3 °C 1015.8 hPa SSE 9.3 km/h 9.3 km/h 47 % 0.0 mm 0.0 W/m2 CLR
22:03 28.6 °C 16.5 °C 1015.8 hPa SE 9.3 km/h 9.3 km/h 48 % 0.0 mm 0.0 W/m2 CLR
22:08 28.4 °C 16.4 °C 1015.8 hPa Calm     48 % 0.0 mm 0.0 W/m2 CLR
22:13 28.3 °C 16.6 °C 1015.8 hPa SE 9.7 km/h 9.7 km/h 49 % 0.0 mm 0.0 W/m2 CLR
22:18 28.2 °C 16.4 °C 1015.8 hPa SE 14.8 km/h 14.8 km/h 49 % 0.0 mm 0.0 W/m2 CLR
22:23 28.0 °C 16.6 °C 1016.1 hPa SE 13.0 km/h 13.0 km/h 50 % 0.0 mm 0.0 W/m2 CLR
22:28 27.9 °C 16.5 °C 1016.1 hPa SE 13.0 km/h 13.0 km/h 50 % 0.0 mm 0.0 W/m2 CLR
22:33 27.8 °C 16.8 °C 1016.1 hPa SSE 11.1 km/h 11.1 km/h 51 % 0.0 mm 0.0 W/m2 CLR
22:38 27.7 °C 16.7 °C 1016.1 hPa SE 3.7 km/h   51 % 0.0 mm 0.0 W/m2 CLR
22:43 27.7 °C 16.6 °C 1016.1 hPa Calm     51 % 0.0 mm 0.0 W/m2 CLR
22:48 27.6 °C 16.6 °C 1016.1 hPa Calm     51 % 0.0 mm 0.0 W/m2 CLR
22:53 27.6 °C 16.5 °C 1016.1 hPa Calm     51 % 0.0 mm 0.0 W/m2 CLR
22:54 27.5 °C 16.4 °C 1016.1 hPa Calm     51 % 0.0 mm 0.0 W/m2 CLR
22:59 27.4 °C 16.4 °C 1016.1 hPa Calm     51 % 0.0 mm 0.0 W/m2 CLR
23:04 27.3 °C 16.3 °C 1016.1 hPa Calm     51 % 0.0 mm 0.0 W/m2 CLR
23:09 27.2 °C 16.5 °C 1016.1 hPa Calm     52 % 0.0 mm 0.0 W/m2 CLR
23:14 27.1 °C 16.4 °C 1016.1 hPa Calm     52 % 0.0 mm 0.0 W/m2 CLR
23:19 27.0 °C 16.6 °C 1016.1 hPa Calm     53 % 0.0 mm 0.0 W/m2 CLR
23:24 26.8 °C 16.4 °C 1016.1 hPa Calm     53 % 0.0 mm 0.0 W/m2 CLR
23:29 26.7 °C 16.3 °C 1016.1 hPa Calm     53 % 0.0 mm 0.0 W/m2 CLR
23:34 26.6 °C 16.6 °C 1016.1 hPa Calm     54 % 0.0 mm 0.0 W/m2 CLR
23:39 26.5 °C 16.4 °C 1016.5 hPa Calm     54 % 0.0 mm 0.0 W/m2 CLR
23:44 26.3 °C 16.8 °C 1016.5 hPa Calm     56 % 0.0 mm 0.0 W/m2 CLR
23:49 25.9 °C 17.1 °C 1016.5 hPa Calm     58 % 0.0 mm 0.0 W/m2 CLR
23:54 25.7 °C 17.3 °C 1016.5 hPa Calm     60 % 0.0 mm 0.0 W/m2 CLR
23:59 25.4 °C 17.6 °C 1016.5 hPa East 5.6 km/h 5.6 km/h 62 % 0.0 mm 0.0 W/m2 CLR
Lo Temps de Massalio
Compliments of Weather Underground - 1.25 mb